Grobbendonk, Belgium
Current Conditions -  °F | °C
As of 9:50 AM on Monday 20 Oct 2014 (Local Time) from EBAW Reporting Station
Broken Clouds Broken Clouds  
Wind Chill: 57°   Ceiling: 2100
Heat Index: 57°   Visibility: 6mi
Dew Point: 52°   Wind: 10mph
Humidity: 82%   Direction: 240°WSW
Pressure: 30.06"   Gusts: NA
Location:  51.19°N, 4.74°E
Report Text: EBAW 200750Z 24009KT 210V270 9999 SCT016 BKN021 14/11 Q1018 NOSIG
Loading
Personal Weather Stations






























Interactive Weather Map New forecast layout! Learn more

10-Day Weather Forecast

Advertisements
Track Severe Weather on mobile